ウダーチヌイ の空港の天気 - METARとTAF

Polyarny ( UERP / PYJ ) - ロシア ウダーチヌイ
飛行場実況気象(Metar)
観測時間04/22 01:00 YAKT (04/21 16:00 UTC)
風向・風速西南西 1m/s
視程10km以上
天気現象
全天の8割程度の雲 雲底高度 1220m
全天を覆う雲 雲底高度 3050m
気温-8℃
湿度73%
気圧998hPa
METARUERP 211600Z 24001MPS 9999 BKN040 OVC100 M08/M12 Q0998 NOSIG RMK QFE704
過去の天気等 Google飛行場航空写真 Wunderground天気予報

過去48時間のMETAR

飛行場予報(TAF)
発表時間: 4/21 23:00 YAKT (4/21 14:00 UTC)
予報対象時間: 22日0時 YAKT ~ 23日0時 YAKT
風向・風速西 4m/s
視程10km以上
全天の8割程度の積乱雲 雲底高度 910m
全天を覆う雲 雲底高度 3050m
22日0時 YAKT ~ 22日6時 YAKT に一時的に
視程2500m
天気現象弱いしゅう雪
全天の8割程度の雲 雲底高度 210m
全天を覆う積乱雲 雲底高度 460m
TAF UERP 211400Z 2115/2215 26004MPS 9999 BKN030CB OVC100
TEMPO 2115/2121 2500 -SHSN BKN007 OVC015CB